createdAt,value
2023-01-25T04:03:57.237Z,1.30
2023-01-25T04:07:09.273Z,1.25
2023-01-25T04:10:21.499Z,1.25
2023-01-25T04:13:35.025Z,1.25
2023-01-25T04:16:44.795Z,1.29
2023-01-25T04:20:12.596Z,1.26
2023-01-25T04:23:25.136Z,1.31
2023-01-25T04:26:35.516Z,1.32
2023-01-25T04:29:46.073Z,1.20
2023-01-25T04:33:04.114Z,1.26
2023-01-25T04:36:15.433Z,1.27
2023-01-25T04:39:25.977Z,1.17
2023-01-25T04:42:37.534Z,1.10
2023-01-25T04:45:48.096Z,1.13
2023-01-25T04:49:04.967Z,1.16
2023-01-25T04:52:19.745Z,1.22
2023-01-25T04:55:32.717Z,1.20
2023-01-25T04:58:43.183Z,1.19
2023-01-25T05:01:52.828Z,1.32
2023-01-25T05:05:02.836Z,1.36
2023-01-25T05:08:13.715Z,1.41
2023-01-25T05:11:23.376Z,1.44
2023-01-25T05:14:39.742Z,1.47
2023-01-25T05:17:49.851Z,1.37
2023-01-25T05:20:59.432Z,1.37
2023-01-25T05:24:11.888Z,1.38
2023-01-25T05:27:22.172Z,1.41
2023-01-25T05:30:50.082Z,1.46
2023-01-25T05:34:06.591Z,1.49
2023-01-25T05:37:18.913Z,1.43
2023-01-25T05:40:31.538Z,1.26
2023-01-25T05:43:43.168Z,1.04
2023-01-25T05:46:52.918Z,1.05
2023-01-25T05:50:02.545Z,1.09
2023-01-25T05:53:27.066Z,1.24
2023-01-25T05:56:38.008Z,1.29
2023-01-25T05:59:47.817Z,1.25
2023-01-25T08:10:39.174Z,1.07
2023-01-25T08:13:49.754Z,1.14
2023-01-25T08:16:59.565Z,1.08
2023-01-25T08:20:09.643Z,1.09
2023-01-25T08:23:20.408Z,1.19
2023-01-25T08:26:31.179Z,1.18
2023-01-25T08:29:40.781Z,1.18
2023-01-25T08:32:50.297Z,1.21
2023-01-25T08:35:59.882Z,1.22
2023-01-25T08:39:13.494Z,1.29
2023-01-25T08:42:25.816Z,1.33
2023-01-25T08:45:36.951Z,1.27
2023-01-25T08:48:46.492Z,1.29
2023-01-25T08:51:56.014Z,1.31
2023-01-25T08:55:05.979Z,1.31
2023-01-25T09:36:00.488Z,1.30
2023-01-25T09:39:12.909Z,1.26
2023-01-25T09:42:38.983Z,1.36
2023-01-25T11:24:57.479Z,1.28
2023-01-25T11:28:12.324Z,1.21
2023-01-25T11:31:23.534Z,1.28
2023-01-25T11:34:33.052Z,1.40
2023-01-25T11:38:07.224Z,1.43
2023-01-25T11:41:26.102Z,1.44
2023-01-25T11:45:03.663Z,1.45
2023-01-25T11:48:25.270Z,1.42
2023-01-25T11:51:40.873Z,1.42
2023-01-25T11:54:59.435Z,1.48
2023-01-25T11:58:29.398Z,1.46
2023-01-25T12:01:48.280Z,1.56
2023-01-25T12:05:21.167Z,1.62
2023-01-25T12:08:45.712Z,1.51
2023-01-25T12:12:08.598Z,1.49
2023-01-25T12:15:33.723Z,1.32
2023-01-25T12:18:57.451Z,1.37
2023-01-25T12:22:22.414Z,1.35
2023-01-25T12:25:43.823Z,1.41
2023-01-25T12:29:00.812Z,1.40
2023-01-25T12:32:18.105Z,1.43
2023-01-25T12:35:34.700Z,1.40
2023-01-25T12:38:53.565Z,1.39
2023-01-25T12:42:09.699Z,1.35
2023-01-25T12:45:24.442Z,1.37
2023-01-25T12:48:41.142Z,1.41
2023-01-25T12:51:54.864Z,1.49
2023-01-25T12:55:07.789Z,1.46
2023-01-25T12:58:37.083Z,1.41
2023-01-25T13:01:52.378Z,1.44
2023-01-25T13:05:21.649Z,1.50
2023-01-25T13:08:42.177Z,1.51
2023-01-25T13:11:51.869Z,1.39
2023-01-25T13:15:01.366Z,1.41
2023-01-25T13:18:34.673Z,1.43
2023-01-25T13:21:48.005Z,1.51
2023-01-25T13:25:10.558Z,1.49
2023-01-25T13:28:41.812Z,1.44
2023-01-25T13:31:53.802Z,1.53
2023-01-25T13:35:05.036Z,1.57
2023-01-25T13:38:31.260Z,1.55
2023-01-25T13:41:59.028Z,1.48
2023-01-25T13:45:18.410Z,1.43
2023-01-25T13:48:32.578Z,1.46
2023-01-25T13:51:43.453Z,1.47
2023-01-25T13:54:57.665Z,1.44
2023-01-25T13:58:11.178Z,1.42
2023-01-25T14:01:23.588Z,1.32
2023-01-25T14:04:33.330Z,1.35
2023-01-25T14:07:46.675Z,1.34
2023-01-25T14:10:58.440Z,1.29
2023-01-25T14:14:20.082Z,1.22
2023-01-25T14:17:29.705Z,1.18
2023-01-25T14:20:39.306Z,1.17
2023-01-25T14:23:53.442Z,1.22
2023-01-25T14:27:05.621Z,1.31
2023-01-25T14:30:19.809Z,1.32
2023-01-25T14:33:31.327Z,1.30
2023-01-25T14:36:42.030Z,1.30
2023-01-25T14:39:52.645Z,1.37
2023-01-25T14:43:04.031Z,1.44
2023-01-25T14:46:24.010Z,1.34
2023-01-25T14:49:33.840Z,1.17
2023-01-25T14:52:43.654Z,1.14
2023-01-25T14:55:53.730Z,1.11
2023-01-25T14:59:06.358Z,1.11
2023-01-25T15:02:24.469Z,1.00
2023-01-25T15:05:35.826Z,1.07
2023-01-25T15:08:45.396Z,1.17
2023-01-25T15:12:00.797Z,1.21
2023-01-25T15:15:23.222Z,1.19
2023-01-25T15:18:43.943Z,1.16
2023-01-25T15:21:55.505Z,1.15
2023-01-25T15:25:15.693Z,1.16
2023-01-25T15:28:36.083Z,1.13
2023-01-25T15:31:47.228Z,1.11
2023-01-25T15:34:57.056Z,1.13
2023-01-25T15:38:07.312Z,1.08
2023-01-25T15:41:18.501Z,1.01
2023-01-25T15:44:28.079Z,0.98
2023-01-25T15:47:39.549Z,0.99
2023-01-25T15:50:49.809Z,0.97
2023-01-25T15:53:59.798Z,0.99
2023-01-25T15:57:19.183Z,0.94
2023-01-25T16:00:28.784Z,0.88
2023-01-25T16:03:41.375Z,0.82
2023-01-25T16:06:52.758Z,0.82
2023-01-25T16:10:02.321Z,0.88
2023-01-25T16:13:12.167Z,0.86
2023-01-25T16:16:23.872Z,0.92
2023-01-25T16:19:34.797Z,0.95
2023-01-25T16:22:44.539Z,0.95
2023-01-25T16:25:54.140Z,0.90
2023-01-25T16:29:03.693Z,0.90
2023-01-25T16:32:13.259Z,0.92
2023-01-25T16:35:25.908Z,0.92
2023-01-25T16:38:35.472Z,0.84
2023-01-25T16:41:45.082Z,0.83
2023-01-25T16:44:54.623Z,0.86
2023-01-25T16:48:04.233Z,0.83
2023-01-25T16:51:20.655Z,0.81
2023-01-25T16:54:30.234Z,0.82
2023-01-25T16:57:39.945Z,0.85
2023-01-25T17:00:49.575Z,0.85
2023-01-25T17:03:59.755Z,0.90
2023-01-25T17:07:12.272Z,0.88
2023-01-25T17:10:21.856Z,0.78
2023-01-25T17:13:31.590Z,0.79
2023-01-25T17:16:41.177Z,0.86
2023-01-25T17:19:51.578Z,0.89
2023-01-25T17:23:02.771Z,0.93
2023-01-25T17:26:14.121Z,0.93
2023-01-25T17:29:24.187Z,0.84
2023-01-25T17:32:33.779Z,0.77
2023-01-25T17:35:43.458Z,0.74
2023-01-25T17:38:54.588Z,0.67
2023-01-25T17:42:06.284Z,0.69
2023-01-25T17:45:15.929Z,0.59
2023-01-25T17:48:26.013Z,0.61
2023-01-25T17:51:36.434Z,0.57
2023-01-25T17:54:47.359Z,0.66
2023-01-25T17:57:57.588Z,0.65
2023-01-25T18:01:14.276Z,0.66
2023-01-25T18:04:25.326Z,0.71
2023-01-25T18:07:35.057Z,0.71
2023-01-25T18:10:46.035Z,0.76
2023-01-25T18:13:57.764Z,0.82
2023-01-25T18:17:07.987Z,0.83
2023-01-25T18:20:19.615Z,0.82
2023-01-25T18:23:29.221Z,0.78
2023-01-25T18:26:40.786Z,0.77
2023-01-25T18:29:56.425Z,0.62
2023-01-25T18:33:07.203Z,0.52
2023-01-25T18:36:18.072Z,0.48
2023-01-25T18:39:29.147Z,0.37
2023-01-25T18:42:40.286Z,0.39
2023-01-25T18:45:56.173Z,0.27
2023-01-25T18:49:05.812Z,0.26
2023-01-25T18:52:16.488Z,0.31
2023-01-25T18:55:27.713Z,0.25
2023-01-25T18:58:39.080Z,0.14
2023-01-25T19:01:48.970Z,0.22
2023-01-25T19:05:00.280Z,0.35
2023-01-25T19:08:10.006Z,0.44
2023-01-25T19:11:21.230Z,0.52
2023-01-25T19:14:32.181Z,0.60
2023-01-25T19:17:41.949Z,0.62
2023-01-25T19:20:51.703Z,0.66
2023-01-25T19:24:01.362Z,0.68
2023-01-25T19:27:11.173Z,0.75
2023-01-25T19:30:22.390Z,0.72
2023-01-25T19:33:32.020Z,0.70
2023-01-25T19:36:45.719Z,0.67
2023-01-25T19:39:55.570Z,0.72
2023-01-25T19:43:05.190Z,0.71
2023-01-25T19:46:18.699Z,0.74
2023-01-25T19:49:28.616Z,0.72
2023-01-25T19:52:38.194Z,0.72
2023-01-25T19:55:47.921Z,0.71
2023-01-25T19:58:58.038Z,0.72
2023-01-25T20:02:12.216Z,0.65
2023-01-25T20:05:21.841Z,0.57
2023-01-25T20:08:31.734Z,0.59
2023-01-25T20:11:41.898Z,0.60
2023-01-25T20:14:51.440Z,0.47
2023-01-25T20:18:02.395Z,0.44
2023-01-25T20:21:14.380Z,0.37
2023-01-25T20:24:23.994Z,0.38
2023-01-25T20:27:33.476Z,0.48
2023-01-25T20:30:43.327Z,0.50
2023-01-25T20:33:56.366Z,0.57
2023-01-25T20:37:05.894Z,0.61
2023-01-25T20:40:16.945Z,0.58
2023-01-25T20:43:27.211Z,0.60
2023-01-25T20:46:38.854Z,0.65
2023-01-25T20:49:50.009Z,0.71
2023-01-25T20:52:59.522Z,0.65
2023-01-25T20:56:10.482Z,0.66
